Thunder radar more information blitzortung!


Radar de pluja more information rain snow radar


Visita la nostra xarxa de llocs de meteo:

Template documentation
and downloads

And another site



No particular awareness of the weather is required.    There are no Weather-warnings

Pagina Historial Weather Underground text

Diari Resum May 15, 2017 Unitats:  Imperial    Mètric   Tant
« Previous Dia
SegĂźent Dia »
Diari Setmana Mensual Anual Personalitzada
  Maxima: Minima: Media:
Temperatura: TemperatureC °F 14.1 °F 21.9 °F
Punt de rosada: DewpointC °F 9.0 °F 10.6 °F
Humitat: Humidity % 35 % 50 %
Wind Speed: WindSpeedKMH mph 0.0 mph 5.8 mph
RĂ fegues de vent: WindSpeedGustKMH mph - -
Vent:- - SSE
Pression baro: PressurehPa in 1024.9 in -
Precipitacions: 0.0 in    
Historical Graphs
 
 
Dades de taula per May 15, 2017
Temps Temperatura Punt de rosada Pression baro Vent Wind Speed RĂ fegues de vent Humitat Rainfall Rate (Hourly)
TemperatureC °F DewpointC °F PressurehPa in Calm     Humidity % HourlyPrecipMM in
00:04 17.1 °F 10.0 °F 1026.0 in Calm     63 % 0.0 in
00:05 14.2 °F 9.4 °F 1026.0 in WSW 1.6 mph 3.2 mph 73 % 0.0 in
00:15 14.1 °F 9.6 °F 1026.0 in Calm     74 % 0.0 in
00:25 14.2 °F 9.4 °F 1027.0 in Calm   1.6 mph 73 % 0.0 in
00:35 14.2 °F 9.6 °F 1027.0 in Calm     74 % 0.0 in
00:45 14.1 °F 9.6 °F 1027.0 in Calm     74 % 0.0 in
00:55 14.3 °F 9.7 °F 1026.0 in Calm     74 % 0.0 in
01:05 14.3 °F 9.7 °F 1026.0 in Calm     74 % 0.0 in
01:15 14.1 °F 9.6 °F 1027.0 in WSW 1.6 mph 3.2 mph 74 % 0.0 in
01:25 14.1 °F 9.6 °F 1027.0 in Calm   1.6 mph 74 % 0.0 in
01:35 14.2 °F 9.6 °F 1027.0 in Calm     74 % 0.0 in
01:45 14.3 °F 9.7 °F 1027.0 in Calm     74 % 0.0 in
01:55 14.1 °F 9.6 °F 1027.0 in North 3.2 mph 3.2 mph 74 % 0.0 in
02:05 14.3 °F 9.7 °F 1027.0 in Calm   3.2 mph 74 % 0.0 in
02:15 14.3 °F 9.5 °F 1027.0 in East 3.2 mph 3.2 mph 73 % 0.0 in
02:25 14.1 °F 9.3 °F 1027.0 in SW 3.2 mph 4.8 mph 73 % 0.0 in
02:35 14.4 °F 9.6 °F 1027.0 in SW 3.2 mph 4.8 mph 73 % 0.0 in
02:45 14.7 °F 10.1 °F 1028.0 in SW 1.6 mph 3.2 mph 74 % 0.0 in
02:55 15.2 °F 10.6 °F 1028.0 in Calm   3.2 mph 74 % 0.0 in
03:05 16.1 °F 11.3 °F 1028.0 in Calm   3.2 mph 73 % 0.0 in
03:15 16.4 °F 11.1 °F 1028.0 in SSW 3.2 mph 4.8 mph 71 % 0.0 in
03:25 16.2 °F 10.7 °F 1028.0 in SW 1.6 mph 3.2 mph 70 % 0.0 in
03:35 16.3 °F 10.8 °F 1028.0 in SW 1.6 mph 3.2 mph 70 % 0.0 in
03:45 17.6 °F 11.8 °F 1028.0 in SSW 1.6 mph 1.6 mph 69 % 0.0 in
03:55 18.1 °F 12.1 °F 1028.0 in South 1.6 mph 4.8 mph 68 % 0.0 in
04:05 19.0 °F 12.3 °F 1028.0 in ESE 1.6 mph 4.8 mph 65 % 0.0 in
04:15 18.9 °F 12.2 °F 1028.0 in ENE 3.2 mph 6.4 mph 65 % 0.0 in
04:25 19.4 °F 12.2 °F 1028.0 in NE 4.8 mph 4.8 mph 63 % 0.0 in
04:35 19.6 °F 12.4 °F 1028.0 in NE 3.2 mph 4.8 mph 63 % 0.0 in
04:45 20.0 °F 12.2 °F 1028.0 in NE 1.6 mph 6.4 mph 61 % 0.0 in
04:55 20.2 °F 11.9 °F 1028.0 in NNE 4.8 mph 8.0 mph 59 % 0.0 in
05:05 20.9 °F 12.6 °F 1028.0 in NNE 1.6 mph 9.7 mph 59 % 0.0 in
05:15 21.6 °F 13.0 °F 1028.0 in NE 3.2 mph 4.8 mph 58 % 0.0 in
05:25 22.0 °F 12.8 °F 1028.0 in NE 3.2 mph 6.4 mph 56 % 0.0 in
05:35 22.4 °F 13.2 °F 1028.0 in ENE 3.2 mph 4.8 mph 56 % 0.0 in
05:45 22.5 °F 13.0 °F 1028.0 in ENE 1.6 mph 4.8 mph 55 % 0.0 in
10:54 23.3 °F 13.2 °F 1028.0 in ENE 5.6 mph 5.6 mph 53 % 0.0 in
10:59 23.3 °F 12.9 °F 1028.0 in NE 3.7 mph 4.2 mph 52 % 0.0 in
11:04 23.8 °F 13.3 °F 1028.0 in ESE 3.9 mph 3.9 mph 52 % 0.0 in
11:09 24.0 °F 13.2 °F 1028.0 in ESE 9.3 mph 9.3 mph 51 % 0.0 in
11:14 23.8 °F 12.7 °F 1028.0 in ENE 9.0 mph 9.0 mph 50 % 0.0 in
11:19 24.1 °F 12.7 °F 1028.0 in NNE 2.3 mph   49 % 0.0 in
11:24 24.3 °F 12.9 °F 1028.0 in ESE 5.6 mph 5.6 mph 49 % 0.0 in
11:29 24.3 °F 12.6 °F 1028.0 in ENE 5.6 mph 5.6 mph 48 % 0.0 in
11:34 24.4 °F 12.7 °F 1028.0 in ENE 11.1 mph 11.1 mph 48 % 0.0 in
11:39 24.3 °F 12.6 °F 1028.0 in ESE 6.4 mph 6.4 mph 48 % 0.0 in
11:44 24.4 °F 12.3 °F 1028.0 in NNE 9.3 mph 9.3 mph 47 % 0.0 in
11:49 24.7 °F 12.6 °F 1028.0 in NNE 5.6 mph 5.6 mph 47 % 0.0 in
11:54 24.4 °F 12.0 °F 1028.0 in East 13.0 mph 13.0 mph 46 % 0.0 in
11:59 24.4 °F 12.3 °F 1028.0 in NNE 7.4 mph 7.4 mph 47 % 0.0 in
12:04 24.7 °F 12.6 °F 1028.0 in East 7.4 mph 7.4 mph 47 % 0.0 in
12:09 24.9 °F 12.5 °F 1029.0 in ENE 5.6 mph   46 % 0.0 in
12:14 25.0 °F 12.2 °F 1029.0 in SE 9.7 mph 9.7 mph 45 % 0.0 in
12:24 25.2 °F 12.4 °F 1028.0 in NE 5.6 mph 5.6 mph 45 % 0.0 in
12:29 26.0 °F 13.2 °F 1028.0 in North 1.9 mph   45 % 0.0 in
12:34 26.1 °F 12.9 °F 1028.0 in ESE 7.9 mph 7.9 mph 44 % 0.0 in
12:35 26.0 °F 12.8 °F 1028.0 in SW 7.4 mph 7.4 mph 44 % 0.0 in
12:40 25.7 °F 12.2 °F 1028.0 in ESE 7.4 mph 7.4 mph 43 % 0.0 in
12:45 25.3 °F 11.8 °F 1028.0 in NNW 7.4 mph 7.4 mph 43 % 0.0 in
12:50 25.9 °F 12.7 °F 1028.0 in SE 5.6 mph 5.6 mph 44 % 0.0 in
12:55 26.0 °F 12.4 °F 1028.0 in NE 9.3 mph 9.3 mph 43 % 0.0 in
13:00 25.9 °F 12.3 °F 1028.0 in ENE 7.4 mph 7.4 mph 43 % 0.0 in
13:05 25.6 °F 11.7 °F 1028.0 in NE 9.3 mph 9.3 mph 42 % 0.0 in
13:10 25.8 °F 11.9 °F 1027.0 in SW 7.9 mph 7.9 mph 42 % 0.0 in
13:15 26.4 °F 12.4 °F 1027.0 in East 1.9 mph   42 % 0.0 in
13:20 26.5 °F 12.6 °F 1027.0 in South 9.3 mph 9.3 mph 42 % 0.0 in
13:25 26.1 °F 12.2 °F 1027.0 in ESE 10.0 mph 10.0 mph 42 % 0.0 in
13:30 26.1 °F 11.8 °F 1027.0 in ESE 13.0 mph 13.0 mph 41 % 0.0 in
13:35 25.9 °F 11.3 °F 1027.0 in SE 9.3 mph 9.3 mph 40 % 0.0 in
13:40 25.9 °F 11.3 °F 1027.0 in SSE 13.0 mph 13.0 mph 40 % 0.0 in
13:45 26.5 °F 11.8 °F 1027.0 in South 11.1 mph 11.1 mph 40 % 0.0 in
13:50 26.1 °F 11.8 °F 1027.0 in SE 16.7 mph 16.7 mph 41 % 0.0 in
13:55 25.7 °F 11.1 °F 1027.0 in East 12.2 mph 12.2 mph 40 % 0.0 in
14:00 25.9 °F 11.6 °F 1027.0 in SE 9.5 mph 9.5 mph 41 % 0.0 in
14:05 25.7 °F 11.1 °F 1027.0 in SSW 14.8 mph 14.8 mph 40 % 0.0 in
14:10 25.7 °F 11.1 °F 1027.0 in ENE 18.5 mph 18.5 mph 40 % 0.0 in
14:15 26.1 °F 11.4 °F 1027.0 in South 9.3 mph 9.3 mph 40 % 0.0 in
14:20 26.4 °F 12.1 °F 1027.0 in ESE 10.0 mph 10.0 mph 41 % 0.0 in
14:25 26.2 °F 11.6 °F 1027.0 in ENE 13.0 mph 13.0 mph 40 % 0.0 in
14:30 26.3 °F 11.6 °F 1027.0 in SE 11.1 mph 11.1 mph 40 % 0.0 in
14:35 26.3 °F 11.6 °F 1027.0 in ESE 20.9 mph 20.9 mph 40 % 0.0 in
14:40 26.1 °F 11.1 °F 1026.0 in ESE 18.5 mph 18.5 mph 39 % 0.0 in
14:45 26.4 °F 11.7 °F 1026.0 in NE 9.3 mph 9.3 mph 40 % 0.0 in
14:50 26.4 °F 11.3 °F 1026.0 in SE 11.1 mph 11.1 mph 39 % 0.0 in
14:55 26.1 °F 11.1 °F 1027.0 in SSW 18.5 mph 18.5 mph 39 % 0.0 in
15:00 26.5 °F 11.4 °F 1027.0 in South 13.0 mph 13.0 mph 39 % 0.0 in
15:01 26.5 °F 11.0 °F 1027.0 in ESE 13.0 mph 13.0 mph 38 % 0.0 in
15:06 26.3 °F 11.2 °F 1027.0 in SSE 14.8 mph 14.8 mph 39 % 0.0 in
15:11 26.2 °F 11.2 °F 1026.0 in SSE 14.8 mph 14.8 mph 39 % 0.0 in
15:16 25.8 °F 10.8 °F 1026.0 in SE 18.5 mph 18.5 mph 39 % 0.0 in
15:21 25.8 °F 10.8 °F 1026.0 in ESE 13.0 mph 13.0 mph 39 % 0.0 in
15:26 26.3 °F 10.8 °F 1026.0 in ESE 9.3 mph 9.3 mph 38 % 0.0 in
15:31 26.2 °F 11.2 °F 1026.0 in ESE 9.3 mph 9.3 mph 39 % 0.0 in
15:36 27.2 °F 11.7 °F 1026.0 in SSW 5.6 mph 5.6 mph 38 % 0.0 in
15:41 27.1 °F 11.2 °F 1026.0 in North 11.1 mph 11.1 mph 37 % 0.0 in
15:46 28.0 °F 12.3 °F 1026.0 in West 17.5 mph 17.5 mph 38 % 0.0 in
15:51 28.1 °F 11.6 °F 1026.0 in WSW 11.1 mph 11.1 mph 36 % 0.0 in
15:56 28.2 °F 12.1 °F 1026.0 in SSE 5.3 mph 5.3 mph 37 % 0.0 in
16:01 28.5 °F 12.4 °F 1026.0 in West 8.7 mph 8.7 mph 37 % 0.0 in
16:06 27.8 °F 11.3 °F 1026.0 in SW 11.1 mph 11.1 mph 36 % 0.0 in
16:11 27.8 °F 11.3 °F 1026.0 in SW 14.8 mph 14.8 mph 36 % 0.0 in
16:16 28.0 °F 11.6 °F 1026.0 in WSW 5.6 mph 5.6 mph 36 % 0.0 in
16:21 28.1 °F 11.6 °F 1026.0 in SW 13.0 mph 13.0 mph 36 % 0.0 in
16:26 27.6 °F 10.8 °F 1026.0 in WSW 11.1 mph 11.1 mph 35 % 0.0 in
16:31 28.0 °F 11.6 °F 1026.0 in NE 5.6 mph 5.6 mph 36 % 0.0 in
16:36 28.2 °F 11.7 °F 1026.0 in South 9.3 mph 9.3 mph 36 % 0.0 in
16:41 27.8 °F 11.3 °F 1026.0 in SW 13.0 mph 13.0 mph 36 % 0.0 in
16:46 27.2 °F 10.4 °F 1026.0 in WSW 11.1 mph 11.1 mph 35 % 0.0 in
16:51 27.3 °F 10.5 °F 1026.0 in South 16.7 mph 16.7 mph 35 % 0.0 in
16:56 27.1 °F 10.3 °F 1026.0 in WSW 13.0 mph 13.0 mph 35 % 0.0 in
17:01 26.9 °F 10.2 °F 1026.0 in SSW 14.8 mph 14.8 mph 35 % 0.0 in
17:06 27.2 °F 10.4 °F 1026.0 in WNW 9.3 mph 9.3 mph 35 % 0.0 in
17:11 27.3 °F 10.5 °F 1026.0 in SSW 10.3 mph 10.3 mph 35 % 0.0 in
17:16 27.1 °F 10.3 °F 1026.0 in West 9.3 mph 9.3 mph 35 % 0.0 in
17:21 27.0 °F 10.2 °F 1026.0 in West 8.7 mph 8.7 mph 35 % 0.0 in
17:26 27.1 °F 10.3 °F 1026.0 in West 20.9 mph 20.9 mph 35 % 0.0 in
17:31 26.5 °F 10.2 °F 1026.0 in WSW 13.0 mph 13.0 mph 36 % 0.0 in
17:36 26.6 °F 10.3 °F 1026.0 in WSW 16.7 mph 16.7 mph 36 % 0.0 in
17:41 26.3 °F 10.1 °F 1026.0 in South 13.0 mph 13.0 mph 36 % 0.0 in
17:46 26.5 °F 10.2 °F 1026.0 in WSW 10.0 mph 10.0 mph 36 % 0.0 in
17:51 26.2 °F 9.9 °F 1026.0 in SSW 13.0 mph 13.0 mph 36 % 0.0 in
17:56 26.1 °F 10.3 °F 1026.0 in WSW 13.0 mph 13.0 mph 37 % 0.0 in
18:01 25.9 °F 9.7 °F 1026.0 in SW 13.0 mph 13.0 mph 36 % 0.0 in
18:06 26.1 °F 10.3 °F 1026.0 in SSE 9.3 mph 9.3 mph 37 % 0.0 in
18:11 26.1 °F 10.3 °F 1026.0 in SSW 9.3 mph 9.3 mph 37 % 0.0 in
18:16 26.0 °F 10.2 °F 1026.0 in SW 14.8 mph 14.8 mph 37 % 0.0 in
18:21 25.5 °F 9.7 °F 1026.0 in SW 13.0 mph 13.0 mph 37 % 0.0 in
18:26 25.6 °F 9.8 °F 1026.0 in SW 13.0 mph 13.0 mph 37 % 0.0 in
18:27 25.6 °F 9.8 °F 1026.0 in SW 13.0 mph 13.0 mph 37 % 0.0 in
18:32 25.6 °F 10.2 °F 1026.0 in SSW 11.1 mph 11.1 mph 38 % 0.0 in
18:37 26.0 °F 10.6 °F 1026.0 in SSW 9.3 mph 9.3 mph 38 % 0.0 in
18:42 25.6 °F 10.2 °F 1026.0 in WSW 11.1 mph 11.1 mph 38 % 0.0 in
18:47 25.2 °F 9.9 °F 1026.0 in SW 11.1 mph 11.1 mph 38 % 0.0 in
18:52 25.2 °F 9.9 °F 1026.0 in SSW 12.2 mph 12.2 mph 38 % 0.0 in
18:57 25.0 °F 9.7 °F 1026.0 in SW 9.5 mph 9.5 mph 38 % 0.0 in
19:02 24.8 °F 9.9 °F 1026.0 in SW 9.3 mph 9.3 mph 39 % 0.0 in
19:07 24.7 °F 9.8 °F 1026.0 in WSW 9.3 mph 9.3 mph 39 % 0.0 in
19:12 24.9 °F 10.0 °F 1024.9 in SW 11.4 mph 11.4 mph 39 % 0.0 in
19:17 24.6 °F 9.7 °F 1024.9 in SW 7.4 mph 7.4 mph 39 % 0.0 in
19:22 24.4 °F 9.9 °F 1024.9 in WSW 3.7 mph 3.9 mph 40 % 0.0 in
19:25 18.2 °F 10.3 °F 1027.0 in Calm   3.2 mph 60 % 0.0 in
19:27 24.2 °F 9.7 °F 1024.9 in SSW 9.3 mph 9.3 mph 40 % 0.0 in
19:32 24.2 °F 9.7 °F 1024.9 in WSW 1.9 mph 1.9 mph 40 % 0.0 in
19:35 17.9 °F 10.3 °F 1027.0 in Calm     61 % 0.0 in
19:37 24.0 °F 9.6 °F 1024.9 in SSE 5.6 mph 5.6 mph 40 % 0.0 in
19:42 23.9 °F 9.5 °F 1024.9 in SW 4.2 mph 4.2 mph 40 % 0.0 in
19:45 17.8 °F 10.2 °F 1027.0 in Calm     61 % 0.0 in
19:47 23.7 °F 9.7 °F 1024.9 in SW 3.7 mph   41 % 0.0 in
19:52 23.6 °F 9.6 °F 1024.9 in West 3.7 mph 3.7 mph 41 % 0.0 in
19:55 17.6 °F 10.0 °F 1027.0 in Calm   1.6 mph 61 % 0.0 in
19:57 23.5 °F 9.5 °F 1024.9 in SW 3.7 mph 3.7 mph 41 % 0.0 in
19:58 23.5 °F 9.5 °F 1024.9 in SSW 3.7 mph 3.7 mph 41 % 0.0 in
20:03 23.3 °F 9.3 °F 1024.9 in SW 3.7 mph 3.9 mph 41 % 0.0 in
20:05 17.6 °F 10.2 °F 1027.0 in Calm   1.6 mph 62 % 0.0 in
20:08 23.3 °F 9.3 °F 1024.9 in WSW 5.3 mph 5.3 mph 41 % 0.0 in
20:13 23.2 °F 9.2 °F 1024.9 in SW 5.3 mph 5.3 mph 41 % 0.0 in
20:15 17.4 °F 10.1 °F 1027.0 in Calm     62 % 0.0 in
20:18 23.0 °F 9.1 °F 1024.9 in SW 5.6 mph 5.6 mph 41 % 0.0 in
20:23 22.8 °F 9.6 °F 1024.9 in SSW 3.7 mph 3.7 mph 43 % 0.0 in
20:25 17.3 °F 10.2 °F 1027.0 in Calm   1.6 mph 63 % 0.0 in
20:28 22.7 °F 9.5 °F 1024.9 in WSW 1.9 mph   43 % 0.0 in
20:33 22.6 °F 9.4 °F 1024.9 in WSW 2.3 mph   43 % 0.0 in
20:35 17.2 °F 10.1 °F 1027.0 in NNE 1.6 mph 3.2 mph 63 % 0.0 in
20:38 22.4 °F 9.2 °F 1024.9 in SW 1.9 mph 1.9 mph 43 % 0.0 in
20:43 22.3 °F 9.4 °F 1026.0 in SW 1.9 mph   44 % 0.0 in
20:45 17.1 °F 10.0 °F 1026.0 in Calm   1.6 mph 63 % 0.0 in
20:48 22.0 °F 9.2 °F 1026.0 in Calm     44 % 0.0 in
20:53 21.9 °F 9.1 °F 1026.0 in SW 1.9 mph   44 % 0.0 in
20:55 17.1 °F 10.2 °F 1026.0 in East 1.6 mph 3.2 mph 64 % 0.0 in
20:58 21.7 °F 9.2 °F 1026.0 in SW 1.9 mph   45 % 0.0 in
21:03 21.5 °F 9.1 °F 1026.0 in SW 1.9 mph 2.3 mph 45 % 0.0 in
21:05 17.0 °F 10.1 °F 1026.0 in ENE 1.6 mph 3.2 mph 64 % 0.0 in
21:08 21.4 °F 9.3 °F 1026.0 in SW 1.9 mph   46 % 0.0 in
21:13 21.2 °F 9.1 °F 1026.0 in WSW 3.7 mph 3.7 mph 46 % 0.0 in
21:15 16.9 °F 10.3 °F 1026.0 in Calm   1.6 mph 65 % 0.0 in
21:18 21.0 °F 9.3 °F 1026.0 in East 2.6 mph   47 % 0.0 in
21:23 21.0 °F 9.3 °F 1026.0 in ENE 1.9 mph 1.9 mph 47 % 0.0 in
21:25 16.7 °F 10.1 °F 1024.9 in Calm     65 % 0.0 in
21:28 20.9 °F 9.8 °F 1026.0 in Calm     49 % 0.0 in
21:33 20.7 °F 9.6 °F 1026.0 in NE 1.9 mph 1.9 mph 49 % 0.0 in
21:35 16.6 °F 10.2 °F 1024.9 in Calm     66 % 0.0 in
21:38 20.7 °F 9.9 °F 1026.0 in NE 2.6 mph 2.6 mph 50 % 0.0 in
21:43 20.5 °F 9.7 °F 1026.0 in NE 3.7 mph 3.7 mph 50 % 0.0 in
21:45 16.2 °F 9.6 °F 1026.0 in ENE 3.2 mph 4.8 mph 65 % 0.0 in
21:48 20.4 °F 9.6 °F 1026.0 in ENE 3.7 mph 3.7 mph 50 % 0.0 in
21:53 20.3 °F 9.8 °F 1024.9 in ENE 2.6 mph 2.6 mph 51 % 0.0 in
21:55 15.9 °F 9.8 °F 1026.0 in Calm   4.8 mph 67 % 0.0 in
21:58 20.2 °F 9.7 °F 1024.9 in NE 1.9 mph 1.9 mph 51 % 0.0 in
22:03 20.1 °F 9.7 °F 1024.9 in NNE 3.7 mph 3.7 mph 51 % 0.0 in
22:05 15.8 °F 9.7 °F 1026.0 in SW 1.6 mph 3.2 mph 67 % 0.0 in
22:08 20.0 °F 9.8 °F 1026.0 in ENE 3.7 mph 3.7 mph 52 % 0.0 in
22:13 19.8 °F 9.9 °F 1026.0 in ENE 3.7 mph 3.7 mph 53 % 0.0 in
22:15 15.6 °F 9.5 °F 1026.0 in SW 3.2 mph 3.2 mph 67 % 0.0 in
22:18 19.8 °F 9.9 °F 1026.0 in NE 1.9 mph 1.9 mph 53 % 0.0 in
22:23 19.7 °F 9.8 °F 1026.0 in North 3.7 mph 3.7 mph 53 % 0.0 in
22:25 15.1 °F 9.0 °F 1026.0 in SW 3.2 mph 4.8 mph 67 % 0.0 in
22:28 19.6 °F 10.1 °F 1026.0 in NNE 3.7 mph 3.7 mph 54 % 0.0 in
22:33 19.5 °F 9.9 °F 1026.0 in Calm     54 % 0.0 in
22:35 15.3 °F 9.7 °F 1026.0 in Calm   4.8 mph 69 % 0.0 in
22:38 19.4 °F 10.1 °F 1027.0 in Calm     55 % 0.0 in
22:43 19.3 °F 10.1 °F 1027.0 in Calm     55 % 0.0 in
22:45 15.4 °F 9.7 °F 1026.0 in Calm   3.2 mph 69 % 0.0 in
22:48 19.3 °F 10.1 °F 1027.0 in Calm     55 % 0.0 in
22:53 19.3 °F 10.3 °F 1027.0 in NNE 3.7 mph 3.7 mph 56 % 0.0 in
22:55 15.7 °F 10.2 °F 1026.0 in WSW 1.6 mph 1.6 mph 70 % 0.0 in
22:58 19.2 °F 10.2 °F 1027.0 in NNW 1.9 mph   56 % 0.0 in
23:03 19.1 °F 10.4 °F 1027.0 in Calm     57 % 0.0 in
23:05 15.7 °F 10.0 °F 1026.0 in Calm   1.6 mph 69 % 0.0 in
23:08 19.0 °F 10.3 °F 1027.0 in Calm     57 % 0.0 in
23:13 18.9 °F 10.4 °F 1027.0 in Calm     58 % 0.0 in
23:15 15.6 °F 9.9 °F 1026.0 in North 1.6 mph 3.2 mph 69 % 0.0 in
23:18 18.8 °F 10.3 °F 1027.0 in Calm     58 % 0.0 in
23:23 18.8 °F 10.6 °F 1027.0 in Calm     59 % 0.0 in
23:25 15.4 °F 9.9 °F 1026.0 in Calm   1.6 mph 70 % 0.0 in
23:28 18.7 °F 10.5 °F 1027.0 in Calm     59 % 0.0 in
23:33 18.7 °F 10.5 °F 1027.0 in Calm     59 % 0.0 in
23:35 15.3 °F 9.7 °F 1026.0 in SW 1.6 mph 3.2 mph 69 % 0.0 in
23:38 18.6 °F 10.4 °F 1027.0 in Calm     59 % 0.0 in
23:43 18.6 °F 10.4 °F 1027.0 in Calm     59 % 0.0 in
23:45 15.4 °F 9.7 °F 1026.0 in Calm   3.2 mph 69 % 0.0 in
23:48 18.6 °F 10.4 °F 1027.0 in Calm     59 % 0.0 in
23:53 18.6 °F 10.4 °F 1026.0 in NNW 1.9 mph   59 % 0.0 in
23:55 15.6 °F 9.9 °F 1026.0 in Calm   3.2 mph 69 % 0.0 in
23:58 18.5 °F 10.6 °F 1026.0 in Calm     60 % 0.0 in
Meteo Sesrovires
Elogis d' Weather Underground - 1.5 mb

Guio original per  Jim McMurry - jmcmurry@mwt.net Adaptat per a la plantilla per  Wim van der Kuil - Leuven-Template.eu

Trobareu la nostra informacio del temps tambe a:

Weather Underground

AWEKAS